Time;durP1;ratioP1;P1;durP2;ratioP2;P2;SDS_P1;SDS_P2;PMS_P1;PMS_P2;Temp;Humidity;BMP_temperature;BMP_pressure;BME280_temperature;BME280_humidity;BME280_pressure;Samples;Min_cycle;Max_cycle;Signal;HPM_P1;HPM_P2
2022/01/06 00:01:44;;;;;;;15.10;2.05;;;3.70;99.90;;;;;;4956987;28;20050;-57
2022/01/06 00:04:10;;;;;;;16.58;2.22;;;3.70;99.90;;;;;;4958876;28;20139;-57
2022/01/06 00:06:39;;;;;;;22.77;2.80;;;3.60;99.90;;;;;;4972741;28;20457;-57
2022/01/06 00:09:07;;;;;;;20.98;3.45;;;3.60;99.90;;;;;;4965643;28;20050;-56
2022/01/06 00:11:33;;;;;;;18.40;2.50;;;3.70;99.90;;;;;;4960567;28;20050;-56
2022/01/06 00:16:39;;;;;;;15.80;2.55;;;3.70;99.90;;;;;;4965145;28;20121;-57
2022/01/06 00:24:21;;;;;;;15.32;2.15;;;3.60;99.90;;;;;;4944604;28;20063;-56
2022/01/06 00:26:48;;;;;;;22.58;3.05;;;3.60;99.90;;;;;;4959791;28;20043;-57
2022/01/06 00:29:15;;;;;;;21.00;2.90;;;3.60;99.90;;;;;;4972621;28;20113;-57
2022/01/06 00:31:41;;;;;;;24.17;3.53;;;3.60;99.90;;;;;;4972204;28;20411;-57
2022/01/06 00:34:10;;;;;;;18.48;2.75;;;3.50;99.90;;;;;;4957502;28;20042;-57
2022/01/06 00:36:40;;;;;;;21.30;3.08;;;3.60;99.90;;;;;;4961630;28;20075;-56
2022/01/06 00:39:08;;;;;;;21.17;2.80;;;3.50;99.90;;;;;;4959202;28;20090;-57
2022/01/06 00:41:35;;;;;;;24.02;3.58;;;3.50;99.90;;;;;;4958427;28;20111;-57
2022/01/06 00:44:03;;;;;;;23.35;3.30;;;3.50;99.90;;;;;;4965408;28;20057;-57
2022/01/06 00:46:29;;;;;;;17.58;2.22;;;3.50;99.90;;;;;;4977050;28;20055;-57
2022/01/06 00:48:54;;;;;;;18.23;2.60;;;3.50;99.90;;;;;;4977789;28;20105;-58
2022/01/06 00:51:20;;;;;;;14.45;2.30;;;3.40;99.90;;;;;;4973147;28;20046;-56
2022/01/06 00:53:46;;;;;;;19.80;2.47;;;3.30;99.90;;;;;;4978659;28;20049;-57
2022/01/06 00:56:12;;;;;;;20.00;2.67;;;3.30;99.90;;;;;;4978938;28;20042;-57
2022/01/06 00:58:37;;;;;;;19.67;3.03;;;3.30;99.90;;;;;;4969060;28;20041;-57
2022/01/06 01:01:03;;;;;;;19.98;2.40;;;3.20;99.90;;;;;;4974599;28;20043;-57
2022/01/06 01:03:29;;;;;;;18.23;2.67;;;3.20;99.90;;;;;;4972987;28;20069;-56
2022/01/06 01:05:57;;;;;;;17.92;2.78;;;3.20;99.90;;;;;;4978452;28;20034;-58
2022/01/06 01:08:24;;;;;;;19.25;2.70;;;3.10;99.90;;;;;;4971306;28;20182;-57
2022/01/06 01:10:52;;;;;;;18.50;2.65;;;3.10;99.90;;;;;;4960887;28;20055;-56
2022/01/06 01:13:27;;;;;;;21.38;2.38;;;3.10;99.90;;;;;;4968076;28;20043;-57
2022/01/06 01:15:55;;;;;;;20.00;2.78;;;3.10;99.90;;;;;;4972646;28;20376;-57
2022/01/06 01:18:22;;;;;;;17.83;2.45;;;3.00;99.90;;;;;;4969049;28;20491;-57
2022/01/06 01:20:53;;;;;;;16.33;2.15;;;3.00;99.90;;;;;;4971753;28;20395;-57
2022/01/06 01:23:23;;;;;;;20.90;2.55;;;2.90;99.90;;;;;;4959183;28;20476;-56
2022/01/06 01:25:49;;;;;;;18.55;2.70;;;2.90;99.90;;;;;;4963558;28;20067;-56
2022/01/06 01:28:15;;;;;;;19.83;2.72;;;2.80;99.90;;;;;;4949753;28;20046;-56
2022/01/06 01:31:11;;;;;;;21.08;2.53;;;2.80;99.90;;;;;;4958877;28;20079;-57
2022/01/06 01:33:38;;;;;;;23.20;2.70;;;2.70;99.90;;;;;;4969956;28;20161;-56
2022/01/06 01:36:04;;;;;;;14.73;2.83;;;2.70;99.90;;;;;;4978522;28;20432;-56
2022/01/06 01:38:30;;;;;;;16.65;2.03;;;2.70;99.90;;;;;;4978220;28;20038;-55
2022/01/06 01:40:56;;;;;;;21.63;2.63;;;2.70;99.90;;;;;;4966203;28;20058;-57
2022/01/06 01:43:22;;;;;;;24.35;2.53;;;2.70;99.90;;;;;;4978028;28;20041;-56
2022/01/06 01:45:54;;;;;;;14.57;2.30;;;2.60;99.90;;;;;;4958827;28;20041;-57
2022/01/06 01:48:26;;;;;;;19.27;2.67;;;2.60;99.90;;;;;;4956514;28;20039;-56
2022/01/06 01:50:52;;;;;;;17.35;2.20;;;2.60;99.90;;;;;;4965237;28;20038;-57
2022/01/06 01:53:18;;;;;;;17.25;2.50;;;2.90;99.90;;;;;;4966169;28;20046;-57
2022/01/06 01:55:43;;;;;;;19.77;2.42;;;2.60;99.90;;;;;;4974689;28;20125;-56
2022/01/06 01:58:10;;;;;;;13.77;2.20;;;2.60;99.90;;;;;;4971227;28;20039;-56
2022/01/06 02:00:36;;;;;;;17.75;2.33;;;2.60;99.90;;;;;;4960715;28;20043;-57
2022/01/06 02:03:01;;;;;;;16.77;1.98;;;2.60;99.90;;;;;;4973941;28;20426;-57
2022/01/06 02:05:28;;;;;;;18.55;2.53;;;2.60;99.90;;;;;;4971562;28;20046;-57
2022/01/06 02:07:56;;;;;;;15.20;2.17;;;2.60;99.90;;;;;;4971807;28;20084;-56
2022/01/06 02:10:22;;;;;;;22.48;2.38;;;2.60;99.90;;;;;;4974954;28;20082;-56
2022/01/06 02:12:50;;;;;;;17.05;2.33;;;2.60;99.90;;;;;;4974525;28;20073;-57
2022/01/06 02:15:16;;;;;;;20.42;3.00;;;2.60;99.90;;;;;;4974641;28;20046;-57
2022/01/06 02:17:43;;;;;;;21.10;2.25;;;2.60;99.90;;;;;;4962055;28;20047;-56
2022/01/06 02:20:12;;;;;;;16.98;2.05;;;2.60;99.90;;;;;;4953964;28;20054;-56
2022/01/06 02:22:38;;;;;;;20.13;2.47;;;2.50;99.90;;;;;;4969953;28;20097;-57
2022/01/06 02:25:15;;;;;;;10.88;1.67;;;2.50;99.90;;;;;;4965445;28;20043;-57
2022/01/06 02:27:43;;;;;;;9.77;1.80;;;2.50;99.90;;;;;;4973438;28;20053;-57
2022/01/06 02:30:10;;;;;;;15.90;2.20;;;2.40;99.90;;;;;;4974709;28;20049;-57
2022/01/06 02:32:36;;;;;;;16.40;2.35;;;2.40;99.90;;;;;;4960149;28;20459;-56
2022/01/06 02:35:07;;;;;;;14.50;2.35;;;2.40;99.90;;;;;;4955178;28;20039;-57
2022/01/06 02:37:33;;;;;;;14.70;2.42;;;2.30;99.90;;;;;;4960598;28;20050;-57
2022/01/06 02:39:59;;;;;;;18.27;2.60;;;2.30;99.90;;;;;;4957140;28;20539;-57
2022/01/06 02:42:25;;;;;;;16.23;1.90;;;2.30;99.90;;;;;;4971907;28;20442;-57
2022/01/06 02:44:51;;;;;;;14.38;2.05;;;2.30;99.90;;;;;;4970671;28;20130;-57
2022/01/06 02:47:16;;;;;;;12.48;2.15;;;2.30;99.90;;;;;;4957194;28;20130;-57
2022/01/06 02:49:42;;;;;;;20.67;2.17;;;2.20;99.90;;;;;;4940534;28;20039;-57
2022/01/06 02:52:08;;;;;;;15.90;2.53;;;2.20;99.90;;;;;;4972182;28;20043;-57
2022/01/06 02:54:34;;;;;;;19.67;2.53;;;2.30;99.90;;;;;;4958762;28;20070;-57
2022/01/06 02:56:59;;;;;;;20.65;3.30;;;2.20;99.90;;;;;;4954723;28;20047;-56
2022/01/06 02:59:25;;;;;;;21.35;3.00;;;2.20;99.90;;;;;;4969088;28;20475;-57
2022/01/06 03:01:51;;;;;;;19.95;2.80;;;2.20;99.90;;;;;;4968775;28;20039;-57
2022/01/06 03:04:16;;;;;;;18.17;2.58;;;2.20;99.90;;;;;;4963732;28;20043;-58
2022/01/06 03:06:42;;;;;;;26.40;3.33;;;2.20;99.90;;;;;;4954439;28;20491;-57
2022/01/06 03:09:09;;;;;;;25.83;3.47;;;2.20;99.90;;;;;;4972937;28;20042;-57
2022/01/06 03:11:40;;;;;;;20.73;2.85;;;2.20;99.90;;;;;;4964374;28;20075;-57
2022/01/06 03:14:05;;;;;;;28.20;3.42;;;2.20;99.90;;;;;;4972216;28;20034;-56
2022/01/06 03:16:31;;;;;;;23.75;3.13;;;2.10;99.90;;;;;;4967363;28;20383;-56
2022/01/06 03:18:57;;;;;;;19.00;2.40;;;2.10;99.90;;;;;;4961935;28;20046;-56
2022/01/06 03:21:22;;;;;;;26.13;3.72;;;2.10;99.90;;;;;;4973794;28;20052;-56
2022/01/06 03:23:48;;;;;;;26.55;3.67;;;2.10;99.90;;;;;;4967715;28;20109;-56
2022/01/06 03:26:14;;;;;;;20.67;3.22;;;2.10;99.90;;;;;;4954315;28;20439;-57
2022/01/06 03:28:40;;;;;;;24.77;3.13;;;2.10;99.90;;;;;;4962278;28;20522;-56
2022/01/06 03:31:06;;;;;;;26.65;3.35;;;2.10;99.90;;;;;;4971255;28;20043;-56
2022/01/06 03:33:31;;;;;;;22.20;3.63;;;2.20;99.90;;;;;;4953897;28;20043;-56
2022/01/06 03:35:57;;;;;;;19.05;3.05;;;2.10;99.90;;;;;;4954229;28;20360;-56
2022/01/06 03:38:23;;;;;;;24.08;2.88;;;2.10;99.90;;;;;;4953856;28;20527;-58
2022/01/06 03:40:48;;;;;;;24.40;3.08;;;2.10;99.90;;;;;;4971907;28;20371;-57
2022/01/06 03:43:14;;;;;;;25.75;3.13;;;2.00;99.90;;;;;;4961891;28;20380;-57
2022/01/06 03:45:40;;;;;;;22.42;3.72;;;1.90;99.90;;;;;;4962739;28;20471;-57
2022/01/06 03:48:06;;;;;;;24.98;3.88;;;1.90;99.90;;;;;;4965858;28;20039;-55
2022/01/06 03:50:32;;;;;;;28.42;3.15;;;1.90;99.90;;;;;;4953680;28;20055;-56
2022/01/06 03:52:58;;;;;;;29.85;3.33;;;1.90;99.90;;;;;;4959251;28;20493;-56
2022/01/06 03:55:23;;;;;;;31.73;3.67;;;1.80;99.90;;;;;;4953657;28;20039;-57
2022/01/06 03:57:49;;;;;;;24.20;3.15;;;1.80;99.90;;;;;;4955310;28;20039;-57
2022/01/06 04:00:17;;;;;;;27.27;3.30;;;1.80;99.90;;;;;;4971618;28;20039;-56
2022/01/06 04:02:44;;;;;;;26.77;3.33;;;1.70;99.90;;;;;;4959192;28;20046;-57
2022/01/06 04:05:10;;;;;;;25.67;3.22;;;1.70;99.90;;;;;;4968976;28;20046;-58
2022/01/06 04:07:38;;;;;;;23.05;3.58;;;1.70;99.90;;;;;;4960830;28;20391;-55
2022/01/06 04:10:05;;;;;;;23.77;3.00;;;1.70;99.90;;;;;;4972710;28;20487;-57
2022/01/06 04:12:34;;;;;;;31.98;4.07;;;1.60;99.90;;;;;;4963833;28;20043;-56
2022/01/06 04:15:00;;;;;;;21.63;3.30;;;1.60;99.90;;;;;;4959258;28;20035;-57
2022/01/06 04:17:26;;;;;;;35.75;4.28;;;1.60;99.90;;;;;;4952569;28;20059;-57
2022/01/06 04:19:52;;;;;;;25.92;3.75;;;1.60;99.90;;;;;;4965685;28;20408;-57
2022/01/06 04:22:18;;;;;;;25.35;3.30;;;1.50;99.90;;;;;;4972521;28;20542;-57
2022/01/06 04:24:45;;;;;;;21.95;2.88;;;1.50;99.90;;;;;;4966041;28;20109;-55
2022/01/06 04:27:10;;;;;;;24.50;3.70;;;1.50;99.90;;;;;;4961782;28;20085;-57
2022/01/06 04:29:36;;;;;;;21.15;2.95;;;1.50;99.90;;;;;;4970412;28;20038;-57
2022/01/06 04:32:02;;;;;;;32.33;3.95;;;1.40;99.90;;;;;;4970564;28;20039;-58
2022/01/06 04:34:28;;;;;;;23.85;3.25;;;1.50;99.90;;;;;;4965105;28;20054;-57
2022/01/06 04:36:57;;;;;;;28.90;3.30;;;1.40;99.90;;;;;;4961286;28;20118;-56
2022/01/06 04:39:22;;;;;;;28.63;3.17;;;1.40;99.90;;;;;;4969546;28;20035;-56
2022/01/06 04:41:48;;;;;;;21.67;3.38;;;1.40;99.90;;;;;;4956452;28;20031;-56
2022/01/06 04:44:14;;;;;;;25.23;2.78;;;1.30;99.90;;;;;;4956563;28;20043;-57
2022/01/06 04:46:40;;;;;;;24.30;3.75;;;1.30;99.90;;;;;;4963859;28;20051;-57
2022/01/06 04:49:06;;;;;;;23.30;3.75;;;1.30;99.90;;;;;;4967923;28;20042;-57
2022/01/06 04:51:32;;;;;;;30.88;3.95;;;1.30;99.90;;;;;;4964943;28;20068;-56
2022/01/06 04:53:58;;;;;;;21.05;2.97;;;1.20;99.90;;;;;;4962600;28;20031;-56
2022/01/06 04:56:23;;;;;;;32.65;3.55;;;1.20;99.90;;;;;;4961057;28;20032;-56
2022/01/06 04:58:49;;;;;;;23.58;3.00;;;1.20;99.90;;;;;;4965196;28;20043;-56
2022/01/06 05:01:15;;;;;;;23.13;3.35;;;1.20;99.90;;;;;;4952994;28;20042;-57
2022/01/06 05:03:41;;;;;;;19.85;2.70;;;1.20;99.90;;;;;;4955487;28;20530;-56
2022/01/06 05:06:07;;;;;;;27.20;3.28;;;1.20;99.90;;;;;;4964221;28;20034;-55
2022/01/06 05:08:33;;;;;;;24.02;3.88;;;1.10;99.90;;;;;;4953738;28;20038;-58
2022/01/06 05:10:58;;;;;;;22.83;3.47;;;1.10;99.90;;;;;;4952925;28;20035;-56
2022/01/06 05:13:24;;;;;;;24.73;2.97;;;1.10;99.90;;;;;;4957659;28;20051;-57
2022/01/06 05:15:49;;;;;;;24.77;3.35;;;1.10;99.90;;;;;;4966417;28;20036;-56
2022/01/06 05:18:15;;;;;;;28.27;3.35;;;1.10;99.90;;;;;;4960456;28;20082;-57
2022/01/06 05:20:42;;;;;;;21.30;3.58;;;1.00;99.90;;;;;;4956666;28;20050;-56
2022/01/06 05:23:10;;;;;;;25.83;2.95;;;1.00;99.90;;;;;;4962545;28;20050;-56
2022/01/06 05:25:36;;;;;;;23.27;3.30;;;1.00;99.90;;;;;;4961818;28;20047;-57
2022/01/06 05:28:02;;;;;;;25.88;3.72;;;1.00;99.90;;;;;;4976146;28;20030;-56
2022/01/06 05:30:28;;;;;;;21.92;2.90;;;1.00;99.90;;;;;;4974285;28;20379;-56
2022/01/06 05:32:54;;;;;;;30.95;4.28;;;1.00;99.90;;;;;;4963940;28;20039;-56
2022/01/06 05:35:20;;;;;;;18.95;3.05;;;1.00;99.90;;;;;;4964092;28;20043;-57
2022/01/06 05:37:46;;;;;;;20.98;2.95;;;1.00;99.90;;;;;;4966704;28;20051;-57
2022/01/06 05:40:13;;;;;;;28.75;2.83;;;1.00;99.90;;;;;;4963537;28;20375;-54
2022/01/06 05:42:39;;;;;;;19.25;2.72;;;1.00;99.90;;;;;;4972649;28;20114;-58
2022/01/06 05:45:05;;;;;;;21.27;2.60;;;1.00;99.90;;;;;;4957346;28;20071;-56
2022/01/06 05:47:31;;;;;;;19.67;3.10;;;1.00;99.90;;;;;;4964033;28;20051;-56
2022/01/06 05:49:57;;;;;;;17.90;2.38;;;1.00;99.90;;;;;;4968578;28;20534;-56
2022/01/06 05:52:22;;;;;;;25.58;2.95;;;1.00;99.90;;;;;;4974108;28;20405;-57
2022/01/06 05:54:48;;;;;;;20.75;2.58;;;1.00;99.90;;;;;;4958530;28;20530;-57
2022/01/06 05:57:15;;;;;;;18.13;2.53;;;1.10;99.90;;;;;;4966345;28;20498;-58
2022/01/06 05:59:42;;;;;;;21.38;2.75;;;1.10;99.90;;;;;;4970518;28;20042;-57
2022/01/06 06:02:08;;;;;;;19.83;2.47;;;1.10;99.90;;;;;;4956055;28;20042;-55
2022/01/06 06:04:33;;;;;;;19.77;3.13;;;1.00;99.90;;;;;;4972182;28;20043;-56
2022/01/06 06:06:59;;;;;;;21.42;2.92;;;1.00;99.90;;;;;;4955959;28;20045;-57
2022/01/06 06:09:24;;;;;;;18.25;2.70;;;0.90;99.90;;;;;;4965792;28;20399;-56
2022/01/06 06:11:50;;;;;;;19.98;3.17;;;0.90;99.90;;;;;;4958147;28;20142;-57
2022/01/06 06:14:16;;;;;;;17.45;2.88;;;0.90;99.90;;;;;;4961754;28;20074;-56
2022/01/06 06:16:42;;;;;;;19.92;2.85;;;0.90;99.90;;;;;;4958213;28;20478;-57
2022/01/06 06:19:07;;;;;;;15.10;2.42;;;0.80;99.90;;;;;;4960770;28;20122;-57
2022/01/06 06:21:33;;;;;;;27.48;2.55;;;0.80;99.90;;;;;;4956754;28;20094;-56
2022/01/06 06:23:59;;;;;;;18.58;2.80;;;0.80;99.90;;;;;;4967272;28;20447;-56
2022/01/06 06:26:24;;;;;;;17.58;2.53;;;0.80;99.90;;;;;;4973606;28;20039;-58
2022/01/06 06:28:50;;;;;;;25.25;2.72;;;0.70;99.90;;;;;;4970878;28;20306;-55
2022/01/06 06:31:16;;;;;;;21.30;2.75;;;0.70;99.90;;;;;;4961755;28;20043;-57
2022/01/06 06:33:42;;;;;;;23.20;3.10;;;0.60;99.90;;;;;;4962017;28;20066;-56
2022/01/06 06:36:07;;;;;;;19.27;2.90;;;0.60;99.90;;;;;;4961353;28;20043;-58
2022/01/06 06:38:33;;;;;;;19.02;2.63;;;0.60;99.90;;;;;;4957911;28;20034;-57
2022/01/06 06:40:59;;;;;;;24.65;3.75;;;0.50;99.90;;;;;;4956591;28;20383;-57
2022/01/06 06:43:25;;;;;;;20.38;6.10;;;0.50;99.90;;;;;;4968487;28;20053;-57
2022/01/06 06:45:50;;;;;;;27.00;3.72;;;0.40;99.90;;;;;;4954862;28;20045;-56
2022/01/06 06:48:16;;;;;;;20.00;3.67;;;0.40;99.90;;;;;;4971126;28;20042;-57
2022/01/06 06:50:42;;;;;;;23.15;3.05;;;0.40;99.90;;;;;;4970631;28;20050;-57
2022/01/06 06:53:07;;;;;;;22.58;4.00;;;0.40;99.90;;;;;;4970172;28;20041;-57
2022/01/06 06:55:34;;;;;;;24.08;3.95;;;0.40;99.90;;;;;;4961208;28;20534;-57
2022/01/06 06:58:00;;;;;;;30.77;4.03;;;0.40;99.90;;;;;;4969974;28;20090;-56
2022/01/06 07:00:25;;;;;;;21.63;3.65;;;0.40;99.90;;;;;;4960660;28;20168;-56
2022/01/06 07:02:51;;;;;;;25.20;3.72;;;0.40;99.90;;;;;;4970172;28;20484;-55
2022/01/06 07:05:17;;;;;;;20.33;3.80;;;0.40;99.90;;;;;;4960473;28;20101;-57
2022/01/06 07:07:44;;;;;;;35.45;5.55;;;0.40;99.90;;;;;;4966101;28;20035;-55
2022/01/06 07:10:09;;;;;;;21.98;4.50;;;0.40;99.90;;;;;;4954941;28;20122;-56
2022/01/06 07:12:45;;;;;;;25.75;4.20;;;0.30;99.90;;;;;;4954698;28;20147;-56
2022/01/06 07:15:12;;;;;;;23.92;3.70;;;0.30;99.90;;;;;;4960023;28;20098;-55
2022/01/06 07:17:39;;;;;;;24.20;4.30;;;0.20;99.90;;;;;;4970288;28;20050;-57
2022/01/06 07:20:06;;;;;;;26.45;4.22;;;0.20;99.90;;;;;;4964484;28;20053;-56
2022/01/06 07:22:32;;;;;;;29.20;3.50;;;0.10;99.90;;;;;;4971436;28;20113;-56
2022/01/06 07:24:57;;;;;;;31.58;3.67;;;0.10;99.90;;;;;;4968008;28;20039;-58
2022/01/06 07:27:23;;;;;;;23.48;3.25;;;0.10;99.90;;;;;;4955594;28;20035;-55
2022/01/06 07:29:49;;;;;;;24.23;3.17;;;0.10;99.90;;;;;;4954411;28;20050;-57
2022/01/06 07:32:15;;;;;;;29.70;3.47;;;0.10;99.90;;;;;;4964370;28;20118;-57
2022/01/06 07:34:41;;;;;;;27.58;3.53;;;0.20;99.90;;;;;;4970514;28;20371;-57
2022/01/06 07:37:07;;;;;;;28.27;3.20;;;0.20;99.90;;;;;;4951995;28;20070;-55
2022/01/06 07:39:33;;;;;;;18.67;3.50;;;0.20;99.90;;;;;;4965125;28;20458;-58
2022/01/06 07:41:58;;;;;;;25.02;3.47;;;0.20;99.90;;;;;;4967145;28;20035;-57
2022/01/06 07:44:24;;;;;;;25.10;3.55;;;0.20;99.90;;;;;;4972965;28;20050;-57
2022/01/06 07:46:50;;;;;;;28.63;3.28;;;0.20;99.90;;;;;;4963048;28;20031;-57
2022/01/06 07:49:16;;;;;;;22.73;3.65;;;0.20;99.90;;;;;;4963067;28;20038;-56
2022/01/06 07:51:42;;;;;;;23.00;3.83;;;0.20;99.90;;;;;;4970030;28;20042;-56
2022/01/06 07:54:07;;;;;;;22.05;4.57;;;0.20;99.90;;;;;;4970237;28;20031;-55
2022/01/06 07:56:34;;;;;;;25.35;3.70;;;0.20;99.90;;;;;;4967519;28;20207;-57
2022/01/06 07:58:59;;;;;;;23.40;4.03;;;0.20;99.90;;;;;;4965468;28;20038;-56
2022/01/06 08:01:26;;;;;;;27.92;3.80;;;0.10;99.90;;;;;;4964606;28;20039;-57
2022/01/06 08:03:52;;;;;;;33.88;3.53;;;0.10;99.90;;;;;;4955873;28;20043;-57
2022/01/06 08:06:18;;;;;;;22.88;4.45;;;0.10;99.90;;;;;;4965691;28;20383;-58
2022/01/06 08:08:44;;;;;;;31.65;4.45;;;0.10;99.90;;;;;;4964851;28;20421;-57
2022/01/06 08:11:11;;;;;;;21.60;3.10;;;0.10;99.90;;;;;;4971722;28;20128;-56
2022/01/06 08:13:37;;;;;;;20.38;3.67;;;0.10;99.90;;;;;;4959905;28;20039;-55
2022/01/06 08:16:02;;;;;;;22.30;4.22;;;0.10;99.90;;;;;;4962195;28;20033;-57
2022/01/06 08:18:28;;;;;;;28.88;4.00;;;0.10;99.90;;;;;;4959610;28;20400;-56
2022/01/06 08:20:55;;;;;;;26.52;4.18;;;0.10;99.90;;;;;;4957731;28;20078;-58
2022/01/06 08:23:21;;;;;;;27.83;4.82;;;0.10;99.90;;;;;;4954144;28;20047;-56
2022/01/06 08:25:47;;;;;;;32.05;4.50;;;0.10;99.90;;;;;;4958265;28;20042;-56
2022/01/06 08:28:13;;;;;;;27.65;4.43;;;0.10;99.90;;;;;;4955431;28;20540;-57
2022/01/06 08:30:39;;;;;;;32.08;4.25;;;0.20;99.90;;;;;;4953043;28;20130;-57
2022/01/06 08:33:04;;;;;;;25.08;4.03;;;0.20;99.90;;;;;;4954211;28;20134;-56
2022/01/06 08:35:30;;;;;;;28.95;4.50;;;0.30;99.90;;;;;;4955091;28;20135;-57
2022/01/06 08:37:56;;;;;;;26.85;5.07;;;0.30;99.90;;;;;;4953969;28;20039;-57
2022/01/06 08:40:22;;;;;;;28.52;4.40;;;0.30;99.90;;;;;;4953525;28;20483;-57
2022/01/06 08:42:48;;;;;;;30.70;5.28;;;0.40;99.90;;;;;;4954764;28;20065;-56
2022/01/06 08:45:16;;;;;;;23.25;4.30;;;0.40;99.90;;;;;;4954998;28;20121;-57
2022/01/06 08:47:42;;;;;;;19.38;4.20;;;0.40;99.90;;;;;;4954816;28;20094;-56
2022/01/06 08:50:08;;;;;;;24.70;3.88;;;0.40;99.90;;;;;;4956573;28;20046;-54
2022/01/06 08:52:35;;;;;;;22.88;3.75;;;0.40;99.90;;;;;;4957768;28;20424;-56
2022/01/06 08:55:01;;;;;;;22.52;3.78;;;0.40;99.90;;;;;;4955809;28;20094;-57
2022/01/06 08:57:27;;;;;;;22.08;3.65;;;0.40;99.90;;;;;;4938481;28;20031;-55
2022/01/06 08:59:53;;;;;;;23.90;3.58;;;0.40;99.90;;;;;;4948077;28;20090;-57
2022/01/06 09:02:18;;;;;;;19.27;3.97;;;0.40;99.90;;;;;;4962567;28;20386;-57
2022/01/06 09:04:44;;;;;;;27.45;4.50;;;0.40;99.90;;;;;;4960369;28;20035;-56
2022/01/06 09:07:10;;;;;;;27.30;4.28;;;0.40;99.90;;;;;;4961889;28;20048;-57
2022/01/06 09:09:39;;;;;;;23.25;4.00;;;0.50;99.90;;;;;;4960490;28;20476;-57
2022/01/06 09:12:08;;;;;;;26.48;4.70;;;0.50;99.90;;;;;;4961921;28;20035;-56
2022/01/06 09:14:34;;;;;;;31.20;4.68;;;0.60;99.90;;;;;;4958757;28;20156;-57
2022/01/06 09:17:00;;;;;;;30.73;4.07;;;0.60;99.90;;;;;;4954964;28;20055;-57
2022/01/06 09:19:26;;;;;;;33.45;4.32;;;0.70;99.90;;;;;;4959755;28;20130;-56
2022/01/06 09:21:52;;;;;;;22.90;4.28;;;0.80;99.90;;;;;;4963613;28;20517;-57
2022/01/06 09:24:19;;;;;;;24.35;4.65;;;0.80;99.90;;;;;;4962675;28;20041;-56
2022/01/06 09:26:45;;;;;;;25.38;4.70;;;0.90;99.90;;;;;;4964961;28;20073;-57
2022/01/06 09:29:13;;;;;;;34.70;5.15;;;1.00;99.90;;;;;;4961554;28;20442;-57
2022/01/06 09:31:41;;;;;;;28.77;5.10;;;1.00;99.90;;;;;;4965096;28;20051;-56
2022/01/06 09:34:08;;;;;;;25.58;5.13;;;1.10;99.90;;;;;;4964138;28;20038;-57
2022/01/06 09:36:34;;;;;;;24.73;4.93;;;1.20;99.90;;;;;;4963631;28;20094;-57
2022/01/06 09:39:01;;;;;;;23.65;4.80;;;1.20;99.90;;;;;;4964495;28;20093;-57
2022/01/06 09:41:27;;;;;;;26.20;5.20;;;1.30;99.90;;;;;;4961617;28;20039;-56
2022/01/06 09:43:56;;;;;;;23.17;5.13;;;1.30;99.90;;;;;;4965182;28;20482;-56
2022/01/06 09:46:22;;;;;;;23.60;6.55;;;1.40;99.90;;;;;;4962059;28;20062;-56
2022/01/06 09:48:48;;;;;;;22.00;3.95;;;1.50;99.90;;;;;;4965363;28;20456;-56
2022/01/06 09:51:15;;;;;;;20.13;3.70;;;1.60;99.90;;;;;;4954138;28;20066;-56
2022/01/06 09:53:41;;;;;;;17.25;3.63;;;1.60;99.90;;;;;;4964345;28;20035;-56
2022/01/06 09:56:10;;;;;;;32.10;4.30;;;1.70;99.90;;;;;;4953306;28;20439;-56
2022/01/06 09:58:36;;;;;;;19.58;4.50;;;1.70;99.90;;;;;;4954396;28;20039;-57
2022/01/06 10:01:02;;;;;;;28.70;5.13;;;1.80;99.90;;;;;;4962191;28;20046;-56
2022/01/06 10:03:38;;;;;;;19.58;4.50;;;1.90;99.90;;;;;;4969514;28;20043;-57
2022/01/06 10:06:24;;;;;;;30.48;4.22;;;2.00;99.90;;;;;;4974391;28;20038;-56
2022/01/06 10:08:59;;;;;;;18.15;3.97;;;2.00;99.90;;;;;;4967672;28;20042;-57
2022/01/06 10:11:31;;;;;;;19.75;4.03;;;2.10;99.90;;;;;;4974481;28;20085;-57
2022/01/06 10:14:04;;;;;;;21.90;4.15;;;2.20;99.90;;;;;;4974934;28;20061;-57
2022/01/06 10:16:30;;;;;;;17.75;4.10;;;2.30;99.90;;;;;;4954873;28;20039;-56
2022/01/06 10:18:57;;;;;;;22.55;4.18;;;2.40;99.90;;;;;;4974189;28;20501;-56
2022/01/06 10:21:23;;;;;;;28.95;5.80;;;2.60;99.90;;;;;;4974619;28;20035;-57
2022/01/06 10:24:13;;;;;;;21.30;5.28;;;2.80;99.90;;;;;;4972836;28;20072;-58
2022/01/06 10:26:52;;;;;;;29.60;7.88;;;3.00;99.90;;;;;;4965482;28;20047;-57
2022/01/06 10:29:22;;;;;;;22.65;7.28;;;3.20;99.90;;;;;;4959432;28;20035;-57
2022/01/06 10:31:48;;;;;;;16.90;5.53;;;3.50;99.90;;;;;;4955163;28;20039;-57
2022/01/06 10:34:14;;;;;;;15.85;4.32;;;3.70;99.90;;;;;;4954991;28;20039;-58
2022/01/06 10:36:41;;;;;;;16.60;4.00;;;4.00;99.90;;;;;;4968446;28;20088;-57
2022/01/06 10:39:08;;;;;;;17.92;3.50;;;4.30;99.90;;;;;;4969038;28;20466;-58
2022/01/06 10:41:37;;;;;;;17.45;4.15;;;4.60;99.90;;;;;;4964982;28;20054;-58
2022/01/06 10:44:04;;;;;;;20.95;4.15;;;4.90;99.90;;;;;;4955343;28;20051;-58
2022/01/06 10:46:35;;;;;;;21.85;4.25;;;5.10;99.90;;;;;;4969006;28;20092;-57
2022/01/06 10:49:13;;;;;;;15.55;3.92;;;5.30;99.90;;;;;;4968810;28;20505;-58
2022/01/06 10:51:42;;;;;;;15.48;4.07;;;5.50;99.90;;;;;;4965627;28;20050;-57
2022/01/06 10:54:17;;;;;;;21.45;3.83;;;5.70;99.90;;;;;;4967941;28;20039;-58
2022/01/06 10:56:55;;;;;;;18.10;4.15;;;5.90;99.90;;;;;;4958860;28;20109;-58
2022/01/06 10:59:33;;;;;;;20.10;4.13;;;6.00;99.90;;;;;;4959180;28;20094;-57
2022/01/06 11:01:59;;;;;;;17.30;3.78;;;6.10;99.90;;;;;;4946248;28;20058;-57
2022/01/06 11:04:25;;;;;;;19.38;4.00;;;6.10;99.90;;;;;;4973660;28;20038;-57
2022/01/06 11:06:52;;;;;;;18.50;3.80;;;6.30;99.90;;;;;;4960419;28;20047;-58
2022/01/06 11:09:18;;;;;;;17.85;2.95;;;6.30;99.90;;;;;;4971028;28;20039;-58
2022/01/06 11:14:25;;;;;;;19.17;3.72;;;6.00;99.90;;;;;;4971761;28;20097;-57
2022/01/06 11:16:51;;;;;;;17.10;3.60;;;5.90;99.90;;;;;;4961513;28;20082;-57
2022/01/06 11:19:17;;;;;;;11.23;2.90;;;5.90;99.90;;;;;;4963794;28;20034;-58
2022/01/06 11:21:48;;;;;;;14.55;3.17;;;6.00;99.90;;;;;;4955176;28;20050;-58
2022/01/06 11:24:16;;;;;;;15.98;3.80;;;6.10;99.90;;;;;;4962625;28;20467;-57
2022/01/06 11:27:04;;;;;;;20.60;3.63;;;6.20;99.90;;;;;;4967026;28;20042;-57
2022/01/06 11:29:34;;;;;;;17.77;2.95;;;6.20;99.90;;;;;;4963469;28;20574;-57
2022/01/06 11:32:04;;;;;;;12.93;2.95;;;6.40;99.90;;;;;;4968998;28;20043;-57
2022/01/06 11:34:37;;;;;;;24.90;3.50;;;6.60;99.90;;;;;;4962827;28;20562;-59
2022/01/06 11:37:14;;;;;;;19.57;3.27;;;6.70;99.90;;;;;;4963243;28;20035;-58
2022/01/06 11:39:41;;;;;;;17.48;3.30;;;6.80;99.90;;;;;;4972568;28;20049;-57
2022/01/06 11:42:15;;;;;;;14.82;2.75;;;6.90;99.90;;;;;;4973041;28;20042;-58
2022/01/06 11:44:53;;;;;;;18.10;3.17;;;6.90;99.90;;;;;;4969491;28;20102;-58
2022/01/06 11:47:39;;;;;;;14.32;2.90;;;6.90;99.90;;;;;;4960961;28;20101;-58
2022/01/06 11:50:25;;;;;;;19.30;3.20;;;7.10;99.90;;;;;;4972808;28;20229;-58
2022/01/06 11:52:55;;;;;;;19.10;3.60;;;7.10;99.90;;;;;;4969317;28;20043;-57
2022/01/06 11:55:23;;;;;;;18.38;3.20;;;7.10;99.90;;;;;;4973009;28;20186;-58
2022/01/06 11:57:50;;;;;;;17.05;3.08;;;7.10;99.90;;;;;;4969911;28;20034;-58
2022/01/06 12:00:26;;;;;;;18.52;3.33;;;7.20;99.90;;;;;;4967296;28;20086;-57
2022/01/06 12:02:59;;;;;;;12.43;2.85;;;7.30;99.90;;;;;;4967285;28;20107;-58
2022/01/06 12:05:25;;;;;;;16.23;3.70;;;7.30;99.90;;;;;;4953611;28;20062;-58
2022/01/06 12:07:53;;;;;;;15.75;3.55;;;7.40;99.90;;;;;;4961068;28;20086;-57
2022/01/06 12:10:20;;;;;;;17.67;3.45;;;6.90;99.90;;;;;;4957691;28;20069;-58
2022/01/06 12:12:50;;;;;;;15.20;3.25;;;7.50;99.90;;;;;;4953893;28;20050;-59
2022/01/06 12:15:18;;;;;;;18.23;3.58;;;7.50;99.90;;;;;;4961507;28;20042;-57
2022/01/06 12:17:51;;;;;;;16.27;3.72;;;7.60;99.90;;;;;;4965916;28;20055;-58
2022/01/06 12:20:22;;;;;;;20.63;3.67;;;7.60;99.90;;;;;;4957352;28;20050;-58
2022/01/06 12:22:49;;;;;;;17.02;3.72;;;7.70;99.90;;;;;;4961520;28;20444;-58
2022/01/06 12:25:15;;;;;;;22.05;3.88;;;7.70;99.90;;;;;;4955012;28;20138;-58
2022/01/06 12:27:48;;;;;;;18.75;4.00;;;7.80;99.90;;;;;;4962837;28;20358;-58
2022/01/06 12:30:17;;;;;;;18.65;3.67;;;7.90;99.90;;;;;;4963270;28;20046;-58
2022/01/06 12:32:53;;;;;;;13.60;3.35;;;7.80;99.90;;;;;;4956874;28;20040;-58
2022/01/06 12:35:18;;;;;;;22.15;3.83;;;7.90;99.90;;;;;;4963894;28;20050;-59
2022/01/06 12:37:44;;;;;;;17.10;3.00;;;8.00;99.90;;;;;;4972031;28;20475;-58
2022/01/06 12:40:10;;;;;;;17.50;2.88;;;8.10;99.90;;;;;;4957135;28;20486;-58
2022/01/06 12:42:42;;;;;;;13.25;2.72;;;8.20;99.90;;;;;;4953380;28;20479;-58
2022/01/06 12:45:08;;;;;;;16.13;3.35;;;8.20;99.90;;;;;;4953087;28;20050;-58
2022/01/06 12:47:34;;;;;;;14.32;2.92;;;8.30;99.90;;;;;;4960881;28;20039;-58
2022/01/06 12:50:00;;;;;;;18.90;3.13;;;8.30;99.90;;;;;;4962864;28;20038;-58
2022/01/06 12:52:26;;;;;;;19.50;2.83;;;8.40;99.90;;;;;;4972361;28;20043;-59
2022/01/06 12:54:52;;;;;;;17.95;3.30;;;8.30;99.90;;;;;;4967024;28;20475;-59
2022/01/06 12:57:18;;;;;;;19.73;3.15;;;8.40;99.90;;;;;;4957049;28;20511;-58
2022/01/06 12:59:49;;;;;;;17.08;3.13;;;8.50;99.90;;;;;;4971671;28;20043;-59